sensor_id;sensor_type;location;lat;lon;timestamp;pressure;altitude;pressure_sealevel;temperature;humidity
51147;BME280;37207;53.060;18.726;2022-08-20T00:00:35;100223.06;;;24.54;67.06
51147;BME280;37207;53.060;18.726;2022-08-20T00:03:09;100229.49;;;24.55;67.10
51147;BME280;37207;53.060;18.726;2022-08-20T00:05:40;100237.13;;;24.55;67.20
51147;BME280;37207;53.060;18.726;2022-08-20T00:08:09;100236.36;;;24.54;67.26
51147;BME280;37207;53.060;18.726;2022-08-20T00:10:39;100240.72;;;24.54;67.28
51147;BME280;37207;53.060;18.726;2022-08-20T00:13:10;100238.64;;;24.53;67.32
51147;BME280;37207;53.060;18.726;2022-08-20T00:15:40;100239.27;;;24.51;67.37
51147;BME280;37207;53.060;18.726;2022-08-20T00:18:08;100236.25;;;24.51;67.41
51147;BME280;37207;53.060;18.726;2022-08-20T00:20:44;100241.74;;;24.47;67.60
51147;BME280;37207;53.060;18.726;2022-08-20T00:23:12;100250.09;;;24.42;67.68
51147;BME280;37207;53.060;18.726;2022-08-20T00:25:40;100252.14;;;24.37;67.70
51147;BME280;37207;53.060;18.726;2022-08-20T00:28:07;100252.04;;;24.32;67.83
51147;BME280;37207;53.060;18.726;2022-08-20T00:30:35;100254.75;;;24.29;67.97
51147;BME280;37207;53.060;18.726;2022-08-20T00:33:05;100255.04;;;24.27;68.02
51147;BME280;37207;53.060;18.726;2022-08-20T00:35:36;100258.84;;;24.23;67.98
51147;BME280;37207;53.060;18.726;2022-08-20T00:38:03;100267.19;;;24.18;67.97
51147;BME280;37207;53.060;18.726;2022-08-20T00:40:39;100272.15;;;24.13;68.16
51147;BME280;37207;53.060;18.726;2022-08-20T00:43:29;100270.67;;;24.09;67.90
51147;BME280;37207;53.060;18.726;2022-08-20T00:45:59;100273.09;;;24.05;68.00
51147;BME280;37207;53.060;18.726;2022-08-20T00:48:32;100274.25;;;24.00;67.97
51147;BME280;37207;53.060;18.726;2022-08-20T00:51:08;100267.81;;;23.95;67.75
51147;BME280;37207;53.060;18.726;2022-08-20T00:53:36;100272.78;;;23.90;67.69
51147;BME280;37207;53.060;18.726;2022-08-20T00:56:06;100272.70;;;23.85;67.69
51147;BME280;37207;53.060;18.726;2022-08-20T00:58:36;100268.55;;;23.81;68.00
51147;BME280;37207;53.060;18.726;2022-08-20T01:01:05;100265.39;;;23.76;67.92
51147;BME280;37207;53.060;18.726;2022-08-20T01:03:32;100266.31;;;23.72;68.06
51147;BME280;37207;53.060;18.726;2022-08-20T01:05:59;100265.11;;;23.68;68.25
51147;BME280;37207;53.060;18.726;2022-08-20T01:08:27;100267.99;;;23.63;68.28
51147;BME280;37207;53.060;18.726;2022-08-20T01:10:54;100269.57;;;23.58;68.41
51147;BME280;37207;53.060;18.726;2022-08-20T01:13:42;100268.26;;;23.52;68.76
51147;BME280;37207;53.060;18.726;2022-08-20T01:16:17;100257.05;;;23.48;68.65
51147;BME280;37207;53.060;18.726;2022-08-20T01:18:47;100260.71;;;23.46;68.94
51147;BME280;37207;53.060;18.726;2022-08-20T01:21:16;100253.83;;;23.44;69.14
51147;BME280;37207;53.060;18.726;2022-08-20T01:26:22;100250.11;;;23.38;69.27
51147;BME280;37207;53.060;18.726;2022-08-20T01:28:56;100255.70;;;23.34;69.24
51147;BME280;37207;53.060;18.726;2022-08-20T01:31:27;100264.84;;;23.31;69.38
51147;BME280;37207;53.060;18.726;2022-08-20T01:33:56;100266.77;;;23.26;69.72
51147;BME280;37207;53.060;18.726;2022-08-20T01:36:30;100266.98;;;23.23;69.77
51147;BME280;37207;53.060;18.726;2022-08-20T01:38:59;100265.21;;;23.21;69.92
51147;BME280;37207;53.060;18.726;2022-08-20T01:44:20;100261.12;;;23.15;70.17
51147;BME280;37207;53.060;18.726;2022-08-20T01:46:49;100264.51;;;23.12;70.30
51147;BME280;37207;53.060;18.726;2022-08-20T01:51:51;100254.98;;;23.06;70.62
51147;BME280;37207;53.060;18.726;2022-08-20T01:54:19;100256.48;;;23.02;70.89
51147;BME280;37207;53.060;18.726;2022-08-20T01:57:00;100255.99;;;22.99;71.04
51147;BME280;37207;53.060;18.726;2022-08-20T01:59:29;100254.09;;;22.98;71.40
51147;BME280;37207;53.060;18.726;2022-08-20T02:01:57;100250.36;;;22.96;71.52
51147;BME280;37207;53.060;18.726;2022-08-20T02:04:25;100249.14;;;22.93;71.63
51147;BME280;37207;53.060;18.726;2022-08-20T02:06:57;100255.52;;;22.90;71.86
51147;BME280;37207;53.060;18.726;2022-08-20T02:09:28;100257.80;;;22.87;72.20
51147;BME280;37207;53.060;18.726;2022-08-20T02:11:57;100259.80;;;22.85;72.61
51147;BME280;37207;53.060;18.726;2022-08-20T02:14:26;100262.30;;;22.83;72.62
51147;BME280;37207;53.060;18.726;2022-08-20T02:16:56;100269.56;;;22.80;72.98
51147;BME280;37207;53.060;18.726;2022-08-20T02:19:33;100270.15;;;22.76;73.30
51147;BME280;37207;53.060;18.726;2022-08-20T02:22:17;100269.30;;;22.74;73.51
51147;BME280;37207;53.060;18.726;2022-08-20T02:24:46;100271.36;;;22.74;73.82
51147;BME280;37207;53.060;18.726;2022-08-20T02:27:13;100268.69;;;22.74;73.96
51147;BME280;37207;53.060;18.726;2022-08-20T02:29:40;100267.80;;;22.73;74.13
51147;BME280;37207;53.060;18.726;2022-08-20T02:32:07;100272.92;;;22.76;74.13
51147;BME280;37207;53.060;18.726;2022-08-20T02:34:34;100272.86;;;22.76;74.51
51147;BME280;37207;53.060;18.726;2022-08-20T02:37:04;100268.77;;;22.78;74.62
51147;BME280;37207;53.060;18.726;2022-08-20T02:39:32;100269.08;;;22.80;74.68
51147;BME280;37207;53.060;18.726;2022-08-20T02:42:00;100273.16;;;22.81;74.66
51147;BME280;37207;53.060;18.726;2022-08-20T02:44:30;100266.23;;;22.83;74.77
51147;BME280;37207;53.060;18.726;2022-08-20T02:46:57;100267.11;;;22.85;74.94
51147;BME280;37207;53.060;18.726;2022-08-20T02:49:27;100259.90;;;22.87;75.05
51147;BME280;37207;53.060;18.726;2022-08-20T02:51:54;100266.42;;;22.88;74.96
51147;BME280;37207;53.060;18.726;2022-08-20T02:54:21;100266.07;;;22.90;75.02
51147;BME280;37207;53.060;18.726;2022-08-20T02:56:51;100266.45;;;22.89;74.89
51147;BME280;37207;53.060;18.726;2022-08-20T02:59:18;100264.61;;;22.89;75.12
51147;BME280;37207;53.060;18.726;2022-08-20T03:01:46;100263.47;;;22.90;75.19
51147;BME280;37207;53.060;18.726;2022-08-20T03:04:14;100264.85;;;22.92;75.28
51147;BME280;37207;53.060;18.726;2022-08-20T03:06:40;100255.09;;;22.91;75.49
51147;BME280;37207;53.060;18.726;2022-08-20T03:09:07;100251.83;;;22.88;75.44
51147;BME280;37207;53.060;18.726;2022-08-20T03:11:34;100242.98;;;22.84;75.35
51147;BME280;37207;53.060;18.726;2022-08-20T03:14:02;100240.44;;;22.84;75.59
51147;BME280;37207;53.060;18.726;2022-08-20T03:16:29;100245.79;;;22.85;75.71
51147;BME280;37207;53.060;18.726;2022-08-20T03:18:57;100245.17;;;22.85;75.96
51147;BME280;37207;53.060;18.726;2022-08-20T03:21:24;100244.33;;;22.85;75.84
51147;BME280;37207;53.060;18.726;2022-08-20T03:23:52;100243.69;;;22.84;76.01
51147;BME280;37207;53.060;18.726;2022-08-20T03:26:19;100247.73;;;22.82;75.96
51147;BME280;37207;53.060;18.726;2022-08-20T03:28:46;100245.27;;;22.81;76.04
51147;BME280;37207;53.060;18.726;2022-08-20T03:31:13;100241.37;;;22.80;76.12
51147;BME280;37207;53.060;18.726;2022-08-20T03:33:41;100234.36;;;22.82;76.36
51147;BME280;37207;53.060;18.726;2022-08-20T03:36:08;100240.34;;;22.83;76.24
51147;BME280;37207;53.060;18.726;2022-08-20T03:38:35;100250.02;;;22.83;76.14
51147;BME280;37207;53.060;18.726;2022-08-20T03:41:03;100258.95;;;22.85;76.24
51147;BME280;37207;53.060;18.726;2022-08-20T03:43:30;100270.08;;;22.90;76.29
51147;BME280;37207;53.060;18.726;2022-08-20T03:45:58;100268.06;;;22.89;76.39
51147;BME280;37207;53.060;18.726;2022-08-20T03:48:26;100271.11;;;22.88;76.23
51147;BME280;37207;53.060;18.726;2022-08-20T03:50:54;100271.24;;;22.87;76.37
51147;BME280;37207;53.060;18.726;2022-08-20T03:53:22;100276.77;;;22.86;76.26
51147;BME280;37207;53.060;18.726;2022-08-20T03:55:49;100280.08;;;22.85;76.37
51147;BME280;37207;53.060;18.726;2022-08-20T03:58:21;100280.58;;;22.83;76.48
51147;BME280;37207;53.060;18.726;2022-08-20T04:00:49;100283.77;;;22.79;76.47
51147;BME280;37207;53.060;18.726;2022-08-20T04:03:17;100280.77;;;22.77;76.61
51147;BME280;37207;53.060;18.726;2022-08-20T04:05:44;100285.73;;;22.75;76.77
51147;BME280;37207;53.060;18.726;2022-08-20T04:08:14;100292.10;;;22.76;76.90
51147;BME280;37207;53.060;18.726;2022-08-20T04:10:43;100289.23;;;22.78;77.02
51147;BME280;37207;53.060;18.726;2022-08-20T04:13:11;100282.02;;;22.78;77.04
51147;BME280;37207;53.060;18.726;2022-08-20T04:15:39;100280.55;;;22.74;77.22
51147;BME280;37207;53.060;18.726;2022-08-20T04:18:08;100279.52;;;22.75;77.17
51147;BME280;37207;53.060;18.726;2022-08-20T04:20:37;100273.54;;;22.74;77.41
51147;BME280;37207;53.060;18.726;2022-08-20T04:23:05;100271.35;;;22.75;77.52
51147;BME280;37207;53.060;18.726;2022-08-20T04:25:34;100269.66;;;22.75;77.55
51147;BME280;37207;53.060;18.726;2022-08-20T04:28:04;100268.88;;;22.77;77.53
51147;BME280;37207;53.060;18.726;2022-08-20T04:30:34;100265.39;;;22.81;77.71
51147;BME280;37207;53.060;18.726;2022-08-20T04:33:01;100261.86;;;22.81;77.71
51147;BME280;37207;53.060;18.726;2022-08-20T04:35:29;100256.77;;;22.82;77.75
51147;BME280;37207;53.060;18.726;2022-08-20T04:37:58;100253.73;;;22.87;77.82
51147;BME280;37207;53.060;18.726;2022-08-20T04:40:29;100253.60;;;22.90;77.99
51147;BME280;37207;53.060;18.726;2022-08-20T04:43:14;100249.56;;;22.96;77.94
51147;BME280;37207;53.060;18.726;2022-08-20T04:45:42;100250.48;;;23.01;77.66
51147;BME280;37207;53.060;18.726;2022-08-20T04:48:09;100241.38;;;23.07;77.65
51147;BME280;37207;53.060;18.726;2022-08-20T04:50:38;100241.95;;;23.14;77.63
51147;BME280;37207;53.060;18.726;2022-08-20T04:53:09;100245.16;;;23.20;77.69
51147;BME280;37207;53.060;18.726;2022-08-20T04:55:40;100242.41;;;23.26;77.65
51147;BME280;37207;53.060;18.726;2022-08-20T04:58:12;100243.06;;;23.30;77.68
51147;BME280;37207;53.060;18.726;2022-08-20T05:00:39;100240.52;;;23.33;77.53
51147;BME280;37207;53.060;18.726;2022-08-20T05:03:06;100237.05;;;23.35;77.59
51147;BME280;37207;53.060;18.726;2022-08-20T05:05:34;100237.95;;;23.40;77.78
51147;BME280;37207;53.060;18.726;2022-08-20T05:08:02;100231.63;;;23.44;77.34
51147;BME280;37207;53.060;18.726;2022-08-20T05:10:29;100230.02;;;23.48;77.45
51147;BME280;37207;53.060;18.726;2022-08-20T05:12:56;100224.02;;;23.51;77.50
51147;BME280;37207;53.060;18.726;2022-08-20T05:15:24;100228.48;;;23.53;77.38
51147;BME280;37207;53.060;18.726;2022-08-20T05:17:57;100232.05;;;23.55;77.21
51147;BME280;37207;53.060;18.726;2022-08-20T05:20:31;100235.70;;;23.57;77.30
51147;BME280;37207;53.060;18.726;2022-08-20T05:23:01;100239.64;;;23.57;77.35
51147;BME280;37207;53.060;18.726;2022-08-20T05:25:29;100248.52;;;23.57;77.16
51147;BME280;37207;53.060;18.726;2022-08-20T05:27:58;100254.69;;;23.57;77.27
51147;BME280;37207;53.060;18.726;2022-08-20T05:30:28;100260.46;;;23.53;77.26
51147;BME280;37207;53.060;18.726;2022-08-20T05:32:59;100267.95;;;23.48;77.32
51147;BME280;37207;53.060;18.726;2022-08-20T05:35:32;100272.86;;;23.46;77.66
51147;BME280;37207;53.060;18.726;2022-08-20T05:38:01;100276.75;;;23.47;77.56
51147;BME280;37207;53.060;18.726;2022-08-20T05:40:28;100279.05;;;23.49;77.79
51147;BME280;37207;53.060;18.726;2022-08-20T05:42:58;100277.30;;;23.54;77.64
51147;BME280;37207;53.060;18.726;2022-08-20T05:45:27;100275.48;;;23.63;77.91
51147;BME280;37207;53.060;18.726;2022-08-20T05:47:54;100277.45;;;23.72;77.86
51147;BME280;37207;53.060;18.726;2022-08-20T05:50:23;100277.64;;;23.82;77.64
51147;BME280;37207;53.060;18.726;2022-08-20T05:52:52;100278.20;;;23.92;77.41
51147;BME280;37207;53.060;18.726;2022-08-20T05:55:20;100279.55;;;24.04;77.42
51147;BME280;37207;53.060;18.726;2022-08-20T05:57:58;100279.90;;;24.18;77.30
51147;BME280;37207;53.060;18.726;2022-08-20T06:00:27;100281.15;;;24.33;77.05
51147;BME280;37207;53.060;18.726;2022-08-20T06:02:55;100289.55;;;24.47;76.85
51147;BME280;37207;53.060;18.726;2022-08-20T06:05:42;100294.52;;;24.62;76.34
51147;BME280;37207;53.060;18.726;2022-08-20T06:08:10;100292.28;;;24.72;76.10
51147;BME280;37207;53.060;18.726;2022-08-20T06:10:39;100292.44;;;24.85;75.89
51147;BME280;37207;53.060;18.726;2022-08-20T06:13:07;100296.15;;;24.97;75.38
51147;BME280;37207;53.060;18.726;2022-08-20T06:15:34;100290.59;;;25.08;74.93
51147;BME280;37207;53.060;18.726;2022-08-20T06:18:04;100290.52;;;25.22;74.76
51147;BME280;37207;53.060;18.726;2022-08-20T06:20:34;100287.05;;;25.35;74.17
51147;BME280;37207;53.060;18.726;2022-08-20T06:23:02;100287.11;;;25.46;73.76
51147;BME280;37207;53.060;18.726;2022-08-20T06:25:31;100284.61;;;25.54;73.33
51147;BME280;37207;53.060;18.726;2022-08-20T06:28:01;100282.73;;;25.58;72.70
51147;BME280;37207;53.060;18.726;2022-08-20T06:30:29;100281.27;;;25.59;72.31
51147;BME280;37207;53.060;18.726;2022-08-20T06:32:57;100279.61;;;25.58;71.78
51147;BME280;37207;53.060;18.726;2022-08-20T06:35:24;100280.25;;;25.59;71.80
51147;BME280;37207;53.060;18.726;2022-08-20T06:37:52;100282.55;;;25.59;71.37
51147;BME280;37207;53.060;18.726;2022-08-20T06:40:22;100282.55;;;25.59;70.86
51147;BME280;37207;53.060;18.726;2022-08-20T06:42:54;100284.58;;;25.56;70.36
51147;BME280;37207;53.060;18.726;2022-08-20T06:45:30;100286.77;;;25.53;70.31
51147;BME280;37207;53.060;18.726;2022-08-20T06:48:00;100286.39;;;25.55;70.16
51147;BME280;37207;53.060;18.726;2022-08-20T06:50:32;100286.89;;;25.58;69.92
51147;BME280;37207;53.060;18.726;2022-08-20T06:53:06;100288.11;;;25.65;69.86
51147;BME280;37207;53.060;18.726;2022-08-20T06:55:34;100292.72;;;25.73;69.33
51147;BME280;37207;53.060;18.726;2022-08-20T06:58:05;100288.35;;;25.79;69.02
51147;BME280;37207;53.060;18.726;2022-08-20T07:00:34;100284.44;;;25.89;69.16
51147;BME280;37207;53.060;18.726;2022-08-20T07:03:03;100286.05;;;26.01;68.85
51147;BME280;37207;53.060;18.726;2022-08-20T07:05:34;100286.40;;;26.06;68.41
51147;BME280;37207;53.060;18.726;2022-08-20T07:08:03;100284.71;;;26.12;68.17
51147;BME280;37207;53.060;18.726;2022-08-20T07:10:30;100286.43;;;26.23;68.24
51147;BME280;37207;53.060;18.726;2022-08-20T07:12:57;100284.42;;;26.39;68.00
51147;BME280;37207;53.060;18.726;2022-08-20T07:15:26;100282.10;;;26.53;67.73
51147;BME280;37207;53.060;18.726;2022-08-20T07:17:57;100283.52;;;26.59;67.15
51147;BME280;37207;53.060;18.726;2022-08-20T07:20:26;100289.88;;;26.61;66.96
51147;BME280;37207;53.060;18.726;2022-08-20T07:22:53;100290.73;;;26.57;66.61
51147;BME280;37207;53.060;18.726;2022-08-20T07:25:21;100290.79;;;26.51;66.29
51147;BME280;37207;53.060;18.726;2022-08-20T07:27:49;100287.50;;;26.46;66.44
51147;BME280;37207;53.060;18.726;2022-08-20T07:30:25;100286.20;;;26.42;66.43
51147;BME280;37207;53.060;18.726;2022-08-20T07:33:11;100288.45;;;26.40;66.63
51147;BME280;37207;53.060;18.726;2022-08-20T07:35:41;100288.70;;;26.37;66.63
51147;BME280;37207;53.060;18.726;2022-08-20T07:38:15;100287.78;;;26.32;66.53
51147;BME280;37207;53.060;18.726;2022-08-20T07:40:45;100290.61;;;26.28;66.59
51147;BME280;37207;53.060;18.726;2022-08-20T07:43:14;100292.06;;;26.24;66.54
51147;BME280;37207;53.060;18.726;2022-08-20T07:45:42;100293.54;;;26.19;66.47
51147;BME280;37207;53.060;18.726;2022-08-20T07:48:11;100291.26;;;26.13;66.39
51147;BME280;37207;53.060;18.726;2022-08-20T07:50:39;100294.52;;;26.07;66.49
51147;BME280;37207;53.060;18.726;2022-08-20T07:53:07;100296.09;;;26.03;66.58
51147;BME280;37207;53.060;18.726;2022-08-20T07:55:34;100291.27;;;26.00;66.71
51147;BME280;37207;53.060;18.726;2022-08-20T07:58:07;100296.25;;;25.99;66.73
51147;BME280;37207;53.060;18.726;2022-08-20T08:00:35;100296.52;;;25.96;66.71
51147;BME280;37207;53.060;18.726;2022-08-20T08:03:03;100301.68;;;25.93;66.47
51147;BME280;37207;53.060;18.726;2022-08-20T08:05:33;100308.23;;;25.90;66.72
51147;BME280;37207;53.060;18.726;2022-08-20T08:08:01;100313.48;;;25.88;66.92
51147;BME280;37207;53.060;18.726;2022-08-20T08:10:29;100312.15;;;25.85;66.83
51147;BME280;37207;53.060;18.726;2022-08-20T08:12:59;100314.88;;;25.80;66.83
51147;BME280;37207;53.060;18.726;2022-08-20T08:15:33;100311.92;;;25.74;66.84
51147;BME280;37207;53.060;18.726;2022-08-20T08:18:08;100310.73;;;25.70;66.90
51147;BME280;37207;53.060;18.726;2022-08-20T08:20:40;100303.50;;;25.65;67.10
51147;BME280;37207;53.060;18.726;2022-08-20T08:23:09;100304.36;;;25.65;67.20
51147;BME280;37207;53.060;18.726;2022-08-20T08:25:39;100303.50;;;25.65;67.10
51147;BME280;37207;53.060;18.726;2022-08-20T08:28:09;100312.17;;;25.64;67.17
51147;BME280;37207;53.060;18.726;2022-08-20T08:30:41;100312.17;;;25.64;67.25
51147;BME280;37207;53.060;18.726;2022-08-20T08:33:22;100313.27;;;25.65;67.24
51147;BME280;37207;53.060;18.726;2022-08-20T08:36:08;100318.68;;;25.74;67.22
51147;BME280;37207;53.060;18.726;2022-08-20T08:38:37;100319.84;;;25.84;67.20
51147;BME280;37207;53.060;18.726;2022-08-20T08:41:30;100318.58;;;25.98;67.17
51147;BME280;37207;53.060;18.726;2022-08-20T08:44:11;100313.70;;;26.16;66.91
51147;BME280;37207;53.060;18.726;2022-08-20T08:46:42;100312.09;;;26.29;66.43
51147;BME280;37207;53.060;18.726;2022-08-20T08:49:14;100317.05;;;26.38;66.11
51147;BME280;37207;53.060;18.726;2022-08-20T08:52:01;100312.44;;;26.42;65.82
51147;BME280;37207;53.060;18.726;2022-08-20T08:54:33;100315.84;;;26.47;65.72
51147;BME280;37207;53.060;18.726;2022-08-20T08:57:04;100315.71;;;26.51;65.59
51147;BME280;37207;53.060;18.726;2022-08-20T08:59:33;100319.52;;;26.53;65.39
51147;BME280;37207;53.060;18.726;2022-08-20T09:02:01;100321.56;;;26.54;65.18
51147;BME280;37207;53.060;18.726;2022-08-20T09:04:31;100324.66;;;26.54;65.23
51147;BME280;37207;53.060;18.726;2022-08-20T09:07:02;100319.89;;;26.50;64.95
51147;BME280;37207;53.060;18.726;2022-08-20T09:09:35;100323.04;;;26.44;64.99
51147;BME280;37207;53.060;18.726;2022-08-20T09:12:14;100323.35;;;26.43;65.11
51147;BME280;37207;53.060;18.726;2022-08-20T09:14:46;100322.61;;;26.42;65.15
51147;BME280;37207;53.060;18.726;2022-08-20T09:17:18;100321.34;;;26.42;65.09
51147;BME280;37207;53.060;18.726;2022-08-20T09:19:46;100317.77;;;26.48;65.10
51147;BME280;37207;53.060;18.726;2022-08-20T09:22:18;100316.58;;;26.56;65.15
51147;BME280;37207;53.060;18.726;2022-08-20T09:24:48;100319.45;;;26.62;65.02
51147;BME280;37207;53.060;18.726;2022-08-20T09:27:17;100314.64;;;26.67;64.84
51147;BME280;37207;53.060;18.726;2022-08-20T09:29:44;100313.27;;;26.74;64.81
51147;BME280;37207;53.060;18.726;2022-08-20T09:32:18;100311.34;;;26.79;64.42
51147;BME280;37207;53.060;18.726;2022-08-20T09:34:48;100316.75;;;26.84;64.25
51147;BME280;37207;53.060;18.726;2022-08-20T09:37:17;100315.17;;;26.92;64.13
51147;BME280;37207;53.060;18.726;2022-08-20T09:39:46;100313.67;;;27.01;64.01
51147;BME280;37207;53.060;18.726;2022-08-20T09:42:18;100311.36;;;27.14;63.82
51147;BME280;37207;53.060;18.726;2022-08-20T09:44:45;100314.48;;;27.24;63.67
51147;BME280;37207;53.060;18.726;2022-08-20T09:47:13;100315.44;;;27.37;63.73
51147;BME280;37207;53.060;18.726;2022-08-20T09:49:42;100313.03;;;27.55;63.39
51147;BME280;37207;53.060;18.726;2022-08-20T09:52:45;100311.62;;;27.82;63.09
51147;BME280;37207;53.060;18.726;2022-08-20T10:05:58;100298.35;;;30.12;60.56
51147;BME280;37207;53.060;18.726;2022-08-20T10:08:29;100301.35;;;30.64;58.29
51147;BME280;37207;53.060;18.726;2022-08-20T10:14:14;100304.22;;;31.13;55.78
51147;BME280;37207;53.060;18.726;2022-08-20T10:16:41;100302.66;;;31.22;55.03
51147;BME280;37207;53.060;18.726;2022-08-20T10:19:08;100305.12;;;31.37;55.23
51147;BME280;37207;53.060;18.726;2022-08-20T10:21:35;100303.41;;;31.62;54.20
51147;BME280;37207;53.060;18.726;2022-08-20T10:24:07;100301.39;;;31.92;53.59
51147;BME280;37207;53.060;18.726;2022-08-20T10:26:36;100302.57;;;32.15;51.21
51147;BME280;37207;53.060;18.726;2022-08-20T10:29:12;100302.02;;;32.25;51.55
51147;BME280;37207;53.060;18.726;2022-08-20T10:31:40;100302.85;;;32.54;51.60
51147;BME280;37207;53.060;18.726;2022-08-20T10:34:07;100303.98;;;32.77;50.92
51147;BME280;37207;53.060;18.726;2022-08-20T10:40:15;100307.91;;;33.31;49.48
51147;BME280;37207;53.060;18.726;2022-08-20T10:42:42;100306.61;;;33.63;48.74
51147;BME280;37207;53.060;18.726;2022-08-20T10:45:11;100308.42;;;33.99;47.66
51147;BME280;37207;53.060;18.726;2022-08-20T10:47:39;100309.10;;;34.10;47.18
51147;BME280;37207;53.060;18.726;2022-08-20T10:50:10;100306.54;;;33.91;46.73
51147;BME280;37207;53.060;18.726;2022-08-20T10:52:37;100306.08;;;33.75;46.37
51147;BME280;37207;53.060;18.726;2022-08-20T10:55:05;100310.36;;;33.42;46.35
51147;BME280;37207;53.060;18.726;2022-08-20T10:57:33;100305.35;;;33.07;47.20
51147;BME280;37207;53.060;18.726;2022-08-20T11:00:04;100302.98;;;32.83;47.97
51147;BME280;37207;53.060;18.726;2022-08-20T11:02:37;100301.03;;;32.65;47.90
51147;BME280;37207;53.060;18.726;2022-08-20T11:05:05;100300.92;;;32.59;48.03
51147;BME280;37207;53.060;18.726;2022-08-20T11:07:35;100301.30;;;32.51;47.65
51147;BME280;37207;53.060;18.726;2022-08-20T11:10:05;100302.87;;;32.31;48.00
51147;BME280;37207;53.060;18.726;2022-08-20T11:12:32;100305.12;;;32.21;48.44
51147;BME280;37207;53.060;18.726;2022-08-20T11:14:59;100302.02;;;32.09;48.26
51147;BME280;37207;53.060;18.726;2022-08-20T11:17:29;100303.48;;;32.07;48.46
51147;BME280;37207;53.060;18.726;2022-08-20T11:19:58;100301.23;;;32.08;48.62
51147;BME280;37207;53.060;18.726;2022-08-20T11:22:26;100296.95;;;32.01;48.41
51147;BME280;37207;53.060;18.726;2022-08-20T11:24:53;100292.36;;;32.04;48.58
51147;BME280;37207;53.060;18.726;2022-08-20T11:27:23;100290.64;;;32.17;48.95
51147;BME280;37207;53.060;18.726;2022-08-20T11:29:52;100292.73;;;32.44;49.20
51147;BME280;37207;53.060;18.726;2022-08-20T11:32:19;100289.20;;;32.72;48.66
51147;BME280;37207;53.060;18.726;2022-08-20T11:34:46;100286.63;;;32.93;48.40
51147;BME280;37207;53.060;18.726;2022-08-20T11:37:17;100286.06;;;33.04;47.51
51147;BME280;37207;53.060;18.726;2022-08-20T11:39:45;100280.55;;;33.09;47.95
51147;BME280;37207;53.060;18.726;2022-08-20T11:42:13;100275.78;;;33.15;47.68
51147;BME280;37207;53.060;18.726;2022-08-20T11:44:40;100279.74;;;33.17;47.41
51147;BME280;37207;53.060;18.726;2022-08-20T11:47:10;100279.13;;;33.19;47.05
51147;BME280;37207;53.060;18.726;2022-08-20T11:49:45;100279.59;;;33.24;47.10
51147;BME280;37207;53.060;18.726;2022-08-20T11:52:12;100277.91;;;33.28;47.11
51147;BME280;37207;53.060;18.726;2022-08-20T11:54:39;100277.20;;;33.32;46.65
51147;BME280;37207;53.060;18.726;2022-08-20T11:57:10;100270.52;;;33.29;46.46
51147;BME280;37207;53.060;18.726;2022-08-20T11:59:37;100265.95;;;33.30;47.19
51147;BME280;37207;53.060;18.726;2022-08-20T12:02:04;100264.98;;;33.38;47.02
51147;BME280;37207;53.060;18.726;2022-08-20T12:04:31;100260.33;;;33.44;46.47
51147;BME280;37207;53.060;18.726;2022-08-20T12:07:11;100262.60;;;33.47;46.21
51147;BME280;37207;53.060;18.726;2022-08-20T12:09:39;100260.23;;;33.48;45.82
51147;BME280;37207;53.060;18.726;2022-08-20T12:12:06;100258.02;;;33.43;46.19
51147;BME280;37207;53.060;18.726;2022-08-20T12:14:34;100258.25;;;33.49;46.70
51147;BME280;37207;53.060;18.726;2022-08-20T12:17:13;100261.11;;;33.61;45.91
51147;BME280;37207;53.060;18.726;2022-08-20T12:19:41;100257.12;;;33.57;44.86
51147;BME280;37207;53.060;18.726;2022-08-20T12:22:09;100257.18;;;33.44;45.68
51147;BME280;37207;53.060;18.726;2022-08-20T12:24:37;100258.67;;;33.37;45.92
51147;BME280;37207;53.060;18.726;2022-08-20T12:27:16;100257.42;;;33.61;45.80
51147;BME280;37207;53.060;18.726;2022-08-20T12:29:45;100267.86;;;33.87;45.08
51147;BME280;37207;53.060;18.726;2022-08-20T12:32:12;100269.73;;;33.99;44.90
51147;BME280;37207;53.060;18.726;2022-08-20T12:34:41;100268.30;;;33.99;44.46
51147;BME280;37207;53.060;18.726;2022-08-20T12:37:14;100263.91;;;33.85;45.05
51147;BME280;37207;53.060;18.726;2022-08-20T12:39:48;100266.12;;;33.60;44.64
51147;BME280;37207;53.060;18.726;2022-08-20T12:42:16;100265.81;;;33.37;44.94
51147;BME280;37207;53.060;18.726;2022-08-20T12:44:43;100266.02;;;33.14;45.52
51147;BME280;37207;53.060;18.726;2022-08-20T12:47:15;100267.95;;;32.94;46.00
51147;BME280;37207;53.060;18.726;2022-08-20T12:49:47;100270.98;;;32.84;46.21
51147;BME280;37207;53.060;18.726;2022-08-20T12:52:19;100266.01;;;32.81;46.81
51147;BME280;37207;53.060;18.726;2022-08-20T12:54:46;100265.19;;;32.83;46.96
51147;BME280;37207;53.060;18.726;2022-08-20T12:57:39;100271.77;;;32.73;46.63
51147;BME280;37207;53.060;18.726;2022-08-20T13:00:11;100270.55;;;32.61;46.74
51147;BME280;37207;53.060;18.726;2022-08-20T13:02:39;100270.69;;;32.54;46.76
51147;BME280;37207;53.060;18.726;2022-08-20T13:05:12;100266.42;;;32.34;46.71
51147;BME280;37207;53.060;18.726;2022-08-20T13:07:40;100266.95;;;32.17;47.12
51147;BME280;37207;53.060;18.726;2022-08-20T13:10:11;100265.33;;;32.07;47.01
51147;BME280;37207;53.060;18.726;2022-08-20T13:12:38;100257.52;;;31.95;47.41
51147;BME280;37207;53.060;18.726;2022-08-20T13:15:06;100262.00;;;31.76;47.93
51147;BME280;37207;53.060;18.726;2022-08-20T13:17:33;100259.83;;;31.55;48.29
51147;BME280;37207;53.060;18.726;2022-08-20T13:20:00;100252.48;;;31.38;48.85